.
WxDataArchive / Data Records for 2016-05-13
2016-05-12 May 2016 2016-05-14

Data Records for Friday, 13 May 2016

Time	Temp	Chill	HIndex	Humid	Dewpt	 Wind 	HiWind	WindDir	Rain 	Barom
-----	----	-----	------	-----	-----	------	------	-------	-----	-----
00:00	59.5	59.5	59.5	95	58.1	0	0	---	0.00	29.863 
00:05	59.3	59.3	59.3	95	57.9	0	1	292	0.00	29.863 
00:10	59.2	59.2	59.2	95	57.8	0	0	---	0.00	29.863 
00:15	59.0	59.0	59.0	95	57.6	0	0	---	0.00	29.866 
00:20	58.9	58.9	58.9	95	57.5	0	1	292	0.00	29.866 
00:25	58.7	58.7	58.7	95	57.3	0	1	292	0.00	29.866 
00:30	58.6	58.6	58.6	95	57.2	0	2	292	0.00	29.866 
00:35	58.4	58.4	58.4	95	57.0	0	2	292	0.00	29.866 
00:40	58.1	58.1	58.1	95	56.7	0	2	292	0.00	29.866 
00:45	58.1	58.1	58.1	95	56.7	0	1	292	0.00	29.866 
00:50	58.0	58.0	58.0	94	56.3	0	2	292	0.00	29.866 
00:55	58.0	58.0	58.0	94	56.3	0	1	292	0.00	29.866 
01:00	57.8	57.8	57.8	94	56.1	0	1	292	0.00	29.867 
01:05	57.5	57.5	57.5	93	55.5	1	4	292	0.00	29.867 
01:10	57.5	57.5	57.5	92	55.2	1	3	292	0.00	29.867 
01:15	57.6	57.6	57.6	92	55.3	0	2	292	0.00	29.866 
01:20	57.6	57.6	57.6	91	55.0	0	1	292	0.00	29.866 
01:25	57.6	57.6	57.6	90	54.7	1	3	292	0.00	29.866 
01:30	57.6	57.6	57.6	88	54.1	1	3	292	0.00	29.866 
01:35	57.5	57.5	57.5	85	53.0	1	3	292	0.00	29.866 
01:40	57.5	57.5	57.5	83	52.4	1	3	292	0.00	29.866 
01:45	57.5	57.5	57.5	80	51.4	2	4	292	0.00	29.867 
01:50	57.5	57.5	57.5	78	50.7	1	3	292	0.00	29.867 
01:55	57.3	57.3	57.3	77	50.1	2	4	292	0.00	29.867 
02:00	57.3	57.3	57.3	76	49.8	1	4	292	0.00	29.868 
02:05	57.2	57.2	57.2	76	49.7	1	3	292	0.00	29.868 
02:10	57.0	57.0	57.0	75	49.2	1	3	292	0.00	29.868 
02:15	56.9	56.9	56.9	75	49.1	1	4	292	0.00	29.869 
02:20	56.7	56.7	56.7	75	48.9	1	4	292	0.00	29.869 
02:25	56.6	56.6	56.6	75	48.8	1	3	292	0.00	29.869 
02:30	56.5	56.5	56.5	75	48.7	2	5	292	0.00	29.871 
02:35	56.5	56.5	56.5	75	48.7	1	3	315	0.00	29.871 
02:40	56.5	56.5	56.5	73	47.9	3	10	315	0.00	29.871 
02:45	56.5	56.5	56.5	72	47.6	3	5	270	0.00	29.874 
02:50	56.5	56.5	56.5	71	47.2	3	5	292	0.00	29.874 
02:55	56.3	56.3	56.3	72	47.4	1	4	292	0.00	29.874 
03:00	56.2	56.2	56.2	73	47.7	2	4	292	0.00	29.871 
03:05	56.0	56.0	56.0	73	47.5	1	3	292	0.00	29.871 
03:10	55.7	55.7	55.7	74	47.5	0	2	292	0.00	29.871 
03:15	55.6	55.6	55.6	76	48.2	0	1	292	0.00	29.876 
03:20	55.3	55.3	55.3	77	48.2	0	1	292	0.00	29.876 
03:25	55.1	55.1	55.1	78	48.4	0	1	292	0.00	29.876 
03:30	54.8	54.8	54.8	79	48.4	0	2	292	0.00	29.880 
03:35	54.7	54.7	54.7	79	48.3	1	4	292	0.00	29.880 
03:40	54.5	54.5	54.5	79	48.1	1	3	292	0.00	29.880 
03:45	54.5	54.5	54.5	79	48.1	0	2	292	0.00	29.881 
03:50	54.2	54.2	54.2	80	48.2	0	1	292	0.00	29.881 
03:55	54.1	54.1	54.1	80	48.1	0	1	292	0.00	29.881 
04:00	53.9	53.9	53.9	81	48.2	0	3	292	0.00	29.883 
04:05	53.8	53.8	53.8	81	48.1	0	2	292	0.00	29.883 
04:10	53.6	53.6	53.6	81	47.9	0	2	292	0.00	29.883 
04:15	53.5	53.5	53.5	81	47.8	0	2	292	0.00	29.888 
04:20	53.3	53.3	53.3	81	47.6	0	1	292	0.00	29.888 
04:25	53.2	53.2	53.2	81	47.5	0	2	292	0.00	29.888 
04:30	53.1	53.1	53.1	81	47.4	0	1	292	0.00	29.889 
04:35	52.9	52.9	52.9	82	47.6	0	1	292	0.00	29.889 
04:40	52.8	52.8	52.8	82	47.5	0	1	292	0.00	29.889 
04:45	52.6	52.6	52.6	82	47.3	0	1	292	0.00	29.888 
04:50	52.5	52.5	52.5	82	47.2	0	1	292	0.00	29.888 
04:55	52.3	52.3	52.3	83	47.3	0	1	292	0.00	29.888 
05:00	52.2	52.2	52.2	83	47.2	0	1	292	0.00	29.890 
05:05	52.2	52.2	52.2	83	47.2	0	2	292	0.00	29.890 
05:10	52.2	52.2	52.2	83	47.2	0	1	292	0.00	29.890 
05:15	52.0	52.0	52.0	83	47.0	0	1	292	0.00	29.894 
05:20	51.9	51.9	51.9	83	46.9	0	2	292	0.00	29.894 
05:25	51.9	51.9	51.9	83	46.9	0	2	292	0.00	29.894 
05:30	51.9	51.9	51.9	83	46.9	0	1	292	0.00	29.895 
05:35	51.7	51.7	51.7	82	46.4	0	3	292	0.00	29.895 
05:40	51.6	51.6	51.6	83	46.6	0	3	292	0.00	29.895 
05:45	51.6	51.6	51.6	83	46.6	0	1	292	0.00	29.898 
05:50	51.4	51.4	51.4	83	46.4	0	2	292	0.00	29.898 
05:55	51.3	51.3	51.3	83	46.3	0	2	292	0.00	29.898 
06:00	51.3	51.3	51.3	83	46.3	0	3	292	0.00	29.904 
06:05	51.3	51.3	51.3	83	46.3	0	3	292	0.00	29.904 
06:10	51.1	51.1	51.1	83	46.1	0	3	292	0.00	29.904 
06:15	51.3	51.3	51.3	82	46.0	1	4	292	0.00	29.912 
06:20	51.3	51.3	51.3	82	46.0	1	2	292	0.00	29.912 
06:25	51.1	51.1	51.1	82	45.8	1	3	292	0.00	29.912 
06:30	51.1	51.1	51.1	82	45.8	1	3	292	0.00	29.915 
06:35	51.1	51.1	51.1	81	45.5	0	2	292	0.00	29.915 
06:40	51.0	51.0	51.0	81	45.4	0	2	292	0.00	29.915 
06:45	50.8	50.8	50.8	82	45.5	0	1	292	0.00	29.924 
06:50	50.8	50.8	50.8	82	45.5	0	2	292	0.00	29.924 
06:55	50.7	50.7	50.7	82	45.4	0	1	292	0.00	29.924 
07:00	50.8	50.8	50.8	82	45.5	1	2	292	0.00	29.927 
07:05	50.8	50.8	50.8	82	45.5	0	2	292	0.00	29.927 
07:10	50.8	50.8	50.8	82	45.5	0	2	292	0.00	29.927 
07:15	51.0	51.0	51.0	82	45.7	1	3	292	0.00	29.934 
07:20	51.0	51.0	51.0	81	45.4	1	3	292	0.00	29.934 
07:25	51.1	51.1	51.1	81	45.5	1	4	292	0.00	29.934 
07:30	51.4	51.4	51.4	81	45.8	1	5	292	0.00	29.943 
07:35	51.6	51.6	51.6	81	46.0	1	2	292	0.00	29.943 
07:40	51.7	51.7	51.7	80	45.7	2	4	292	0.00	29.943 
07:45	51.9	51.9	51.9	80	45.9	2	6	292	0.00	29.947 
07:50	52.2	52.2	52.2	79	45.9	1	4	292	0.00	29.947 
07:55	52.3	52.3	52.3	78	45.6	3	5	292	0.00	29.947 
08:00	52.5	52.5	52.5	78	45.8	2	6	292	0.00	29.947 
08:05	52.8	52.8	52.8	77	45.8	2	5	292	0.00	29.947 
08:10	53.1	53.1	53.1	78	46.4	1	4	292	0.00	29.947 
08:15	53.2	53.2	53.2	77	46.2	2	4	292	0.00	29.954 
08:20	53.3	53.3	53.3	77	46.3	2	6	292	0.00	29.954 
08:25	53.3	53.3	53.3	77	46.3	2	5	292	0.00	29.954 
08:30	53.5	53.5	53.5	76	46.1	3	7	292	0.00	29.957 
08:35	53.5	53.5	53.5	76	46.1	3	8	270	0.00	29.957 
08:40	53.5	53.5	53.5	76	46.1	3	6	292	0.00	29.957 
08:45	53.8	53.8	53.8	76	46.4	2	4	292	0.00	29.958 
08:50	54.1	54.1	54.1	76	46.7	2	5	292	0.00	29.958 
08:55	54.2	54.2	54.2	75	46.4	3	6	292	0.00	29.958 
09:00	54.4	54.4	54.4	74	46.3	3	6	292	0.00	29.960 
09:05	54.4	54.4	54.4	74	46.3	2	4	315	0.00	29.960 
09:10	54.5	54.5	54.5	73	46.0	2	6	315	0.00	29.960 
09:15	54.7	54.7	54.7	74	46.6	2	4	292	0.00	29.962 
09:20	55.3	55.3	55.3	73	46.8	2	4	270	0.00	29.962 
09:25	55.6	55.6	55.6	72	46.7	2	5	270	0.00	29.962 
09:30	55.7	55.7	55.7	71	46.4	2	5	292	0.00	29.961 
09:35	55.7	55.7	55.7	70	46.1	3	7	292	0.00	29.961 
09:40	55.7	55.7	55.7	70	46.1	2	6	292	0.00	29.961 
09:45	56.0	56.0	56.0	70	46.4	3	6	315	0.00	29.961 
09:50	56.2	56.2	56.2	69	46.2	3	6	292	0.00	29.961 
09:55	56.3	56.3	56.3	69	46.3	2	5	292	0.00	29.961 
10:00	56.6	56.6	56.6	69	46.5	2	6	315	0.00	29.959 
10:05	56.7	56.7	56.7	69	46.6	2	5	315	0.00	29.959 
10:10	56.9	56.9	56.9	69	46.8	2	4	315	0.00	29.959 
10:15	57.0	57.0	57.0	69	46.9	2	5	315	0.00	29.955 
10:20	57.5	57.5	57.5	69	47.4	1	3	315	0.00	29.955 
10:25	57.6	57.6	57.6	68	47.1	2	5	292	0.00	29.955 
10:30	57.6	57.6	57.6	67	46.7	2	4	292	0.00	29.957 
10:35	57.8	57.8	57.8	67	46.9	2	6	292	0.00	29.957 
10:40	58.1	58.1	58.1	69	48.0	1	3	292	0.00	29.957 
10:45	58.7	58.7	58.7	68	48.2	1	3	292	0.00	29.957 
10:50	58.6	58.6	58.6	66	47.3	1	3	292	0.00	29.957 
10:55	58.3	58.3	58.3	66	47.0	2	7	292	0.00	29.957 
11:00	58.1	58.1	58.1	67	47.2	2	4	292	0.00	29.960 
11:05	58.1	58.1	58.1	69	48.0	1	4	292	0.00	29.960 
11:10	58.4	58.4	58.4	67	47.5	2	4	292	0.00	29.960 
11:15	58.9	58.9	58.9	67	48.0	1	4	292	0.00	29.959 
11:20	59.3	59.3	59.3	65	47.5	1	4	292	0.00	29.959 
11:25	59.3	59.3	59.3	65	47.5	2	5	292	0.00	29.959 
11:30	59.6	59.6	59.6	62	46.6	3	5	292	0.00	29.960 
11:35	59.6	59.6	59.6	63	47.0	3	5	292	0.00	29.960 
11:40	59.5	59.5	59.5	64	47.3	2	6	292	0.00	29.960 
11:45	59.5	59.5	59.5	63	46.9	2	5	292	0.00	29.970 
11:50	59.6	59.6	59.6	64	47.4	3	9	292	0.00	29.970 
11:55	59.5	59.5	59.5	64	47.3	1	4	292	0.00	29.970 
12:00	59.6	59.6	59.6	63	47.0	3	7	292	0.00	29.974 
12:05	59.8	59.8	59.8	64	47.6	3	6	292	0.00	29.974 
12:10	59.6	59.6	59.6	62	46.6	4	6	292	0.00	29.974 
12:15	59.6	59.6	59.6	63	47.0	3	6	292	0.00	29.976 
12:20	60.1	60.1	60.1	61	46.6	4	11	292	0.00	29.976 
12:25	60.5	60.5	60.5	59	46.1	3	6	292	0.00	29.976 
12:30	60.2	60.2	60.2	61	46.7	3	5	292	0.00	29.975 
12:35	60.9	60.9	60.9	60	46.9	3	9	292	0.00	29.975 
12:40	61.2	61.2	61.2	57	45.8	4	7	292	0.00	29.975 
12:45	61.0	61.0	61.0	58	46.1	3	5	292	0.00	29.979 
12:50	60.9	60.9	60.9	60	46.9	2	5	270	0.00	29.979 
12:55	61.2	61.2	61.2	59	46.8	2	5	292	0.00	29.979 
13:00	61.2	61.2	61.2	58	46.3	1	4	292	0.00	29.969 
13:05	61.6	61.6	61.6	58	46.7	2	7	292	0.00	29.969 
13:10	61.6	61.6	61.6	59	47.1	2	4	315	0.00	29.969 
13:15	61.6	61.6	61.6	56	45.7	2	6	292	0.00	29.970 
13:20	62.1	62.1	62.1	56	46.2	2	6	292	0.00	29.970 
13:25	62.0	62.0	62.0	55	45.6	2	6	292	0.00	29.970 
13:30	62.1	62.1	62.1	56	46.2	2	5	292	0.00	29.961 
13:35	62.3	62.3	62.3	55	45.9	1	6	292	0.00	29.961 
13:40	62.1	62.1	62.1	56	46.2	1	5	315	0.00	29.961 
13:45	62.3	62.3	62.3	55	45.9	2	5	292	0.00	29.964 
13:50	62.4	62.4	62.4	57	47.0	2	5	292	0.00	29.964 
13:55	62.9	62.9	62.9	54	46.0	1	4	292	0.00	29.964 
14:00	63.2	63.2	63.2	53	45.8	1	4	292	0.00	29.956 
14:05	63.5	63.5	63.5	51	45.0	1	3	292	0.00	29.956 
14:10	63.4	63.4	63.4	51	45.0	2	5	292	0.00	29.956 
14:15	63.1	63.1	63.1	53	45.7	0	4	292	0.00	29.958 
14:20	63.2	63.2	63.2	53	45.8	1	4	292	0.00	29.958 
14:25	63.1	63.1	63.1	51	44.7	2	6	292	0.00	29.958 
14:30	63.4	63.4	63.4	51	45.0	3	6	292	0.00	29.955 
14:35	63.7	63.7	63.7	52	45.7	1	4	292	0.00	29.955 
14:40	64.2	64.2	64.2	53	46.7	1	4	292	0.00	29.955 
14:45	64.0	64.0	64.0	52	46.0	2	5	292	0.00	29.947 
14:50	63.9	63.9	63.9	52	45.9	1	5	292	0.00	29.947 
14:55	63.5	63.5	63.5	50	44.5	2	5	270	0.00	29.947 
15:00	63.9	63.9	63.9	54	46.9	0	3	270	0.00	29.944 
15:05	64.0	64.0	64.0	50	45.0	2	4	270	0.00	29.944 
15:10	63.5	63.5	63.5	52	45.6	1	5	292	0.00	29.944 
15:15	63.7	63.7	63.7	52	45.7	1	4	292	0.00	29.944 
15:20	64.0	64.0	64.0	53	46.5	1	4	292	0.00	29.944 
15:25	64.3	64.3	64.3	51	45.8	3	5	292	0.00	29.944 
15:30	64.5	64.5	64.5	49	44.9	2	7	292	0.00	29.943 
15:35	65.0	65.0	65.0	50	45.9	2	5	292	0.00	29.943 
15:40	65.5	65.5	65.5	50	46.4	1	4	292	0.00	29.943 
15:45	65.3	65.3	65.3	50	46.2	3	6	292	0.00	29.939 
15:50	65.6	65.6	65.6	50	46.5	1	3	292	0.00	29.939 
15:55	66.0	66.0	66.0	49	46.3	1	4	292	0.00	29.939 
16:00	66.3	66.3	66.3	48	46.0	2	4	292	0.00	29.926 
16:05	66.0	66.0	66.0	46	44.6	1	4	292	0.00	29.926 
16:10	65.2	65.2	65.2	48	45.0	2	6	0	0.00	29.926 
16:15	65.3	65.3	65.3	50	46.2	2	9	292	0.00	29.928 
16:20	65.8	65.8	65.8	49	46.1	2	5	292	0.00	29.928 
16:25	66.0	66.0	66.0	48	45.7	2	4	292	0.00	29.928 
16:30	65.8	65.8	65.8	46	44.4	2	4	292	0.00	29.925 
16:35	66.0	66.0	66.0	49	46.3	2	5	292	0.00	29.925 
16:40	66.3	66.3	66.3	48	46.0	0	3	292	0.00	29.925 
16:45	66.9	66.9	66.9	45	44.9	2	5	292	0.00	29.914 
16:50	67.1	67.1	67.1	45	45.0	1	4	292	0.00	29.914 
16:55	66.9	66.9	66.9	45	44.9	3	7	315	0.00	29.914 
17:00	66.8	66.8	66.8	45	44.8	3	6	270	0.00	29.922 
17:05	66.9	66.9	66.9	48	46.6	1	3	270	0.00	29.922 
17:10	67.1	67.1	67.1	45	45.0	2	5	270	0.00	29.922 
17:15	67.1	67.1	67.1	43	43.8	1	4	270	0.00	29.913 
17:20	66.9	66.9	66.9	44	44.3	2	5	292	0.00	29.913 
17:25	66.6	66.6	66.6	46	45.2	1	5	315	0.00	29.913 
17:30	66.6	66.6	66.6	46	45.2	1	3	315	0.00	29.910 
17:35	66.8	66.8	66.8	46	45.3	0	3	315	0.00	29.910 
17:40	67.1	67.1	67.1	42	43.2	1	4	292	0.00	29.910 
17:45	67.1	67.1	67.1	43	43.8	2	5	292	0.00	29.898 
17:50	66.9	66.9	66.9	43	43.7	1	5	292	0.00	29.898 
17:55	66.6	66.6	66.6	44	44.0	1	4	292	0.00	29.898 
18:00	66.3	66.3	66.3	45	44.3	0	2	292	0.00	29.908 
18:05	66.0	66.0	66.0	46	44.6	1	3	292	0.00	29.908 
18:10	65.8	65.8	65.8	45	43.9	0	2	292	0.00	29.908 
18:15	65.6	65.6	65.6	45	43.7	0	3	292	0.00	29.904 
18:20	65.6	65.6	65.6	47	44.8	1	3	292	0.00	29.904 
18:25	65.8	65.8	65.8	46	44.4	1	3	292	0.00	29.904 
18:30	66.3	66.3	66.3	46	44.9	1	4	292	0.00	29.904 
18:35	66.1	66.1	66.1	45	44.1	1	5	292	0.00	29.904 
18:40	65.8	65.8	65.8	46	44.4	0	3	292	0.00	29.904 
18:45	65.5	65.5	65.5	48	45.3	1	3	292	0.00	29.889 
18:50	65.5	65.5	65.5	48	45.3	0	3	292	0.00	29.889 
18:55	65.3	65.3	65.3	48	45.1	0	3	292	0.00	29.889 
19:00	65.3	65.3	65.3	48	45.1	0	4	292	0.00	29.882 
19:05	65.2	65.2	65.2	48	45.0	1	5	292	0.00	29.882 
19:10	64.8	64.8	64.8	49	45.2	0	4	292	0.00	29.882 
19:15	64.7	64.7	64.7	50	45.6	0	2	292	0.00	29.872 
19:20	64.5	64.5	64.5	50	45.4	0	1	292	0.00	29.872 
19:25	64.3	64.3	64.3	51	45.8	0	0	---	0.00	29.872 
19:30	64.2	64.2	64.2	50	45.2	0	1	292	0.00	29.866 
19:35	64.2	64.2	64.2	50	45.2	1	4	292	0.00	29.866 
19:40	64.0	64.0	64.0	50	45.0	0	1	292	0.00	29.866 
19:45	63.9	63.9	63.9	50	44.9	0	1	292	0.00	29.865 
19:50	63.9	63.9	63.9	50	44.9	0	2	292	0.00	29.865 
19:55	63.7	63.7	63.7	51	45.2	0	1	292	0.00	29.865 
20:00	63.5	63.5	63.5	51	45.0	0	0	---	0.00	29.860 
20:05	63.4	63.4	63.4	52	45.5	0	0	---	0.00	29.860 
20:10	63.2	63.2	63.2	52	45.3	0	0	---	0.00	29.860 
20:15	63.1	63.1	63.1	52	45.2	0	1	292	0.00	29.849 
20:20	62.9	62.9	62.9	53	45.5	0	0	---	0.00	29.849 
20:25	62.7	62.7	62.7	54	45.8	0	1	292	0.00	29.849 
20:30	62.4	62.4	62.4	54	45.5	0	0	---	0.00	29.858 
20:35	62.3	62.3	62.3	54	45.4	0	0	---	0.00	29.858 
20:40	62.0	62.0	62.0	54	45.2	0	0	---	0.00	29.858 
20:45	61.8	61.8	61.8	56	45.9	0	0	---	0.00	29.851 
20:50	61.6	61.6	61.6	56	45.7	0	0	---	0.00	29.851 
20:55	61.3	61.3	61.3	56	45.5	0	0	---	0.00	29.851 
21:00	61.2	61.2	61.2	58	46.3	0	0	---	0.00	29.862 
21:05	60.9	60.9	60.9	58	46.0	0	0	---	0.00	29.862 
21:10	60.7	60.7	60.7	58	45.8	0	1	292	0.00	29.862 
21:15	60.5	60.5	60.5	59	46.1	0	0	---	0.00	29.852 
21:20	60.4	60.4	60.4	59	46.0	0	0	---	0.00	29.852 
21:25	60.2	60.2	60.2	60	46.3	0	0	---	0.00	29.852 
21:30	60.2	60.2	60.2	61	46.7	0	0	---	0.00	29.850 
21:35	60.1	60.1	60.1	62	47.0	0	0	---	0.00	29.850 
21:40	59.9	59.9	59.9	62	46.8	0	0	---	0.00	29.850 
21:45	59.8	59.8	59.8	62	46.8	0	0	---	0.00	29.849 
21:50	59.6	59.6	59.6	63	47.0	0	0	---	0.00	29.849 
21:55	59.6	59.6	59.6	63	47.0	0	0	---	0.00	29.849 
22:00	59.8	59.8	59.8	64	47.6	0	0	---	0.00	29.837 
22:05	59.6	59.6	59.6	65	47.8	0	0	---	0.00	29.837 
22:10	59.6	59.6	59.6	65	47.8	0	0	---	0.00	29.837 
22:15	59.5	59.5	59.5	65	47.7	0	0	---	0.00	29.838 
22:20	59.5	59.5	59.5	65	47.7	0	0	---	0.00	29.838 
22:25	59.5	59.5	59.5	65	47.7	0	1	292	0.00	29.838 
22:30	59.5	59.5	59.5	65	47.7	0	0	---	0.00	29.843 
22:35	59.5	59.5	59.5	65	47.7	0	0	---	0.00	29.843 
22:40	59.6	59.6	59.6	65	47.8	0	0	---	0.00	29.843 
22:45	59.5	59.5	59.5	65	47.7	0	0	---	0.00	29.835 
22:50	59.6	59.6	59.6	66	48.2	0	1	292	0.00	29.835 
22:55	59.6	59.6	59.6	65	47.8	0	1	292	0.00	29.835 
23:00	59.6	59.6	59.6	65	47.8	0	1	292	0.00	29.830 
23:05	59.6	59.6	59.6	65	47.8	0	0	---	0.00	29.830 
23:10	59.8	59.8	59.8	65	48.0	0	0	---	0.00	29.830 
23:15	59.8	59.8	59.8	65	48.0	0	1	292	0.00	29.815 
23:20	59.8	59.8	59.8	65	48.0	0	1	292	0.00	29.815 
23:25	59.8	59.8	59.8	65	48.0	0	0	---	0.00	29.815 
23:30	59.8	59.8	59.8	65	48.0	0	1	292	0.00	29.801 
23:35	59.8	59.8	59.8	65	48.0	0	1	292	0.00	29.801 
23:40	59.8	59.8	59.8	65	48.0	0	1	292	0.00	29.801 
23:45	59.9	59.9	59.9	65	48.1	0	1	292	0.00	29.798 
23:50	59.9	59.9	59.9	65	48.1	0	1	292	0.00	29.798 
23:55	59.9	59.9	59.9	64	47.7	0	1	292	0.00	29.798 

CoCoRaHS
IN-AL-39
A2 Web Hosting
Creative Commons License
GoDaddy
search engine by freefind advanced

loaded 2018-11-20 15:04:54 • last modified 2010-11-18 10:43:29
Privacy PolicyDisclaimer
• wx.awcolley.com is powered by PmWiki v.2002016 •
• all content (unless otherwise noted) © 2018 A W Colley